Kezdőlap
METAR-TAF:

METAR-TAF

Repülőterek :

Abumusa, Irán

földrajzi szélesség: 25-52-33N, földrajzi hosszúság: 055-02-01E, magasság: 7 m

Jelenlegi meteorológiai megfigyelések

A jelentés 4 órával és 20 perccel ezelõtt készült, 15:00 UTC
Nyugat-északnyugati szél 4 kt
Hőmérséklet 27°C
Páratartalom 70%
Légköri nyomás 1007 hPa
Látótávolság: 4000 m
Száraz légköri homály,

METAR: OIBA 211500Z 30004KT 4000 HZ NSC 27/21 Q1007

Idő: 23:50 (19:20 UTC)


TAF: hiányzik

Meteorológiai megfigyelések és előrejelzések több, mint 4000 repülőtéren (METAR és TAF jelentéseket).

A térképen piros és sárga pontok jelzik az elérhető meteorológiai állomásokat.

Mozgassa az egeret a pont fölött, hogy megjelenjen az állomás neve.

Azután kattintson az időjárási megfigyelések és előrejelzések megtekintéséhez.

A térkép megváltoztatása: kattintson a fekete keresztel jelölt zöld gombra ráközelítéshez, a vonallal jelölt zöld gombra távolításhoz, vagy a zöld nyilakra a szomszédos térképek eléréséhez.


METAR-TAF: